sensor_id;sensor_type;location;lat;lon;timestamp;P1;durP1;ratioP1;P2;durP2;ratioP2
65477;SDS011;53678;39.642;22.430;2024-03-25T00:00:59;8.98;;;5.38;;
65477;SDS011;53678;39.642;22.430;2024-03-25T00:03:25;10.02;;;5.32;;
65477;SDS011;53678;39.642;22.430;2024-03-25T00:05:50;8.80;;;5.15;;
65477;SDS011;53678;39.642;22.430;2024-03-25T00:08:16;13.73;;;5.30;;
65477;SDS011;53678;39.642;22.430;2024-03-25T00:10:42;9.60;;;5.32;;
65477;SDS011;53678;39.642;22.430;2024-03-25T00:13:08;8.55;;;5.47;;
65477;SDS011;53678;39.642;22.430;2024-03-25T00:15:35;11.85;;;5.68;;
65477;SDS011;53678;39.642;22.430;2024-03-25T00:18:03;10.00;;;5.07;;
65477;SDS011;53678;39.642;22.430;2024-03-25T00:20:29;14.48;;;6.03;;
65477;SDS011;53678;39.642;22.430;2024-03-25T00:22:55;14.55;;;6.50;;
65477;SDS011;53678;39.642;22.430;2024-03-25T00:25:21;9.05;;;5.70;;
65477;SDS011;53678;39.642;22.430;2024-03-25T00:27:46;9.82;;;5.75;;
65477;SDS011;53678;39.642;22.430;2024-03-25T00:30:13;17.13;;;5.63;;
65477;SDS011;53678;39.642;22.430;2024-03-25T00:32:38;8.18;;;5.25;;
65477;SDS011;53678;39.642;22.430;2024-03-25T00:35:05;7.85;;;5.47;;
65477;SDS011;53678;39.642;22.430;2024-03-25T00:37:32;9.90;;;5.28;;
65477;SDS011;53678;39.642;22.430;2024-03-25T00:39:58;11.05;;;5.85;;
65477;SDS011;53678;39.642;22.430;2024-03-25T00:42:23;10.88;;;6.38;;
65477;SDS011;53678;39.642;22.430;2024-03-25T00:44:49;13.32;;;7.20;;
65477;SDS011;53678;39.642;22.430;2024-03-25T00:47:15;14.85;;;7.70;;
65477;SDS011;53678;39.642;22.430;2024-03-25T00:49:41;12.73;;;6.60;;
65477;SDS011;53678;39.642;22.430;2024-03-25T00:52:06;10.38;;;6.40;;
65477;SDS011;53678;39.642;22.430;2024-03-25T00:54:32;13.50;;;7.88;;
65477;SDS011;53678;39.642;22.430;2024-03-25T00:56:58;12.60;;;6.80;;
65477;SDS011;53678;39.642;22.430;2024-03-25T00:59:24;10.50;;;6.40;;
65477;SDS011;53678;39.642;22.430;2024-03-25T01:01:49;10.82;;;6.22;;
65477;SDS011;53678;39.642;22.430;2024-03-25T01:04:16;9.55;;;6.00;;
65477;SDS011;53678;39.642;22.430;2024-03-25T01:06:42;9.18;;;5.88;;
65477;SDS011;53678;39.642;22.430;2024-03-25T01:09:07;9.77;;;5.82;;
65477;SDS011;53678;39.642;22.430;2024-03-25T01:11:33;22.13;;;7.20;;
65477;SDS011;53678;39.642;22.430;2024-03-25T01:13:59;9.23;;;5.97;;
65477;SDS011;53678;39.642;22.430;2024-03-25T01:16:26;9.43;;;5.70;;
65477;SDS011;53678;39.642;22.430;2024-03-25T01:18:52;9.88;;;5.88;;
65477;SDS011;53678;39.642;22.430;2024-03-25T01:21:18;17.50;;;6.68;;
65477;SDS011;53678;39.642;22.430;2024-03-25T01:23:44;14.10;;;7.43;;
65477;SDS011;53678;39.642;22.430;2024-03-25T01:26:11;15.02;;;7.03;;
65477;SDS011;53678;39.642;22.430;2024-03-25T01:28:38;13.20;;;6.57;;
65477;SDS011;53678;39.642;22.430;2024-03-25T01:31:04;10.55;;;7.32;;
65477;SDS011;53678;39.642;22.430;2024-03-25T01:33:29;8.93;;;6.03;;
65477;SDS011;53678;39.642;22.430;2024-03-25T01:35:55;12.57;;;6.18;;
65477;SDS011;53678;39.642;22.430;2024-03-25T01:38:21;12.35;;;6.18;;
65477;SDS011;53678;39.642;22.430;2024-03-25T01:40:48;10.57;;;6.10;;
65477;SDS011;53678;39.642;22.430;2024-03-25T01:43:14;12.60;;;6.28;;
65477;SDS011;53678;39.642;22.430;2024-03-25T01:45:40;11.73;;;6.22;;
65477;SDS011;53678;39.642;22.430;2024-03-25T01:48:08;10.00;;;5.88;;
65477;SDS011;53678;39.642;22.430;2024-03-25T01:50:42;13.07;;;5.18;;
65477;SDS011;53678;39.642;22.430;2024-03-25T01:53:10;8.20;;;5.43;;
65477;SDS011;53678;39.642;22.430;2024-03-25T01:55:37;11.00;;;7.13;;
65477;SDS011;53678;39.642;22.430;2024-03-25T01:58:07;10.20;;;5.85;;
65477;SDS011;53678;39.642;22.430;2024-03-25T02:00:33;14.68;;;6.50;;
65477;SDS011;53678;39.642;22.430;2024-03-25T02:03:00;9.57;;;6.15;;
65477;SDS011;53678;39.642;22.430;2024-03-25T02:05:26;10.43;;;6.20;;
65477;SDS011;53678;39.642;22.430;2024-03-25T02:07:52;11.00;;;6.80;;
65477;SDS011;53678;39.642;22.430;2024-03-25T02:10:19;11.35;;;7.00;;
65477;SDS011;53678;39.642;22.430;2024-03-25T02:12:46;12.63;;;6.68;;
65477;SDS011;53678;39.642;22.430;2024-03-25T02:15:13;12.35;;;6.88;;
65477;SDS011;53678;39.642;22.430;2024-03-25T02:17:39;10.00;;;6.47;;
65477;SDS011;53678;39.642;22.430;2024-03-25T02:20:05;18.50;;;7.68;;
65477;SDS011;53678;39.642;22.430;2024-03-25T02:22:34;9.50;;;6.47;;
65477;SDS011;53678;39.642;22.430;2024-03-25T02:25:05;11.80;;;7.00;;
65477;SDS011;53678;39.642;22.430;2024-03-25T02:27:33;15.55;;;7.25;;
65477;SDS011;53678;39.642;22.430;2024-03-25T02:30:05;10.25;;;6.47;;
65477;SDS011;53678;39.642;22.430;2024-03-25T02:32:35;9.57;;;6.10;;
65477;SDS011;53678;39.642;22.430;2024-03-25T02:35:02;10.27;;;5.97;;
65477;SDS011;53678;39.642;22.430;2024-03-25T02:37:30;8.73;;;5.68;;
65477;SDS011;53678;39.642;22.430;2024-03-25T02:39:57;11.23;;;5.78;;
65477;SDS011;53678;39.642;22.430;2024-03-25T02:42:27;10.00;;;6.10;;
65477;SDS011;53678;39.642;22.430;2024-03-25T02:44:54;10.07;;;6.50;;
65477;SDS011;53678;39.642;22.430;2024-03-25T02:47:21;16.60;;;8.35;;
65477;SDS011;53678;39.642;22.430;2024-03-25T02:49:47;12.00;;;6.97;;
65477;SDS011;53678;39.642;22.430;2024-03-25T02:52:13;9.52;;;7.25;;
65477;SDS011;53678;39.642;22.430;2024-03-25T02:54:39;8.75;;;7.05;;
65477;SDS011;53678;39.642;22.430;2024-03-25T02:57:05;14.95;;;8.00;;
65477;SDS011;53678;39.642;22.430;2024-03-25T02:59:30;13.27;;;8.15;;
65477;SDS011;53678;39.642;22.430;2024-03-25T03:01:57;13.85;;;8.23;;
65477;SDS011;53678;39.642;22.430;2024-03-25T03:04:22;17.08;;;9.00;;
65477;SDS011;53678;39.642;22.430;2024-03-25T03:06:48;13.38;;;8.48;;
65477;SDS011;53678;39.642;22.430;2024-03-25T03:09:14;12.85;;;8.43;;
65477;SDS011;53678;39.642;22.430;2024-03-25T03:11:40;13.10;;;8.52;;
65477;SDS011;53678;39.642;22.430;2024-03-25T03:14:06;14.95;;;8.38;;
65477;SDS011;53678;39.642;22.430;2024-03-25T03:16:32;12.52;;;7.28;;
65477;SDS011;53678;39.642;22.430;2024-03-25T03:18:57;11.63;;;7.05;;
65477;SDS011;53678;39.642;22.430;2024-03-25T03:21:23;11.48;;;7.05;;
65477;SDS011;53678;39.642;22.430;2024-03-25T03:23:49;11.77;;;7.03;;
65477;SDS011;53678;39.642;22.430;2024-03-25T03:26:15;11.45;;;6.28;;
65477;SDS011;53678;39.642;22.430;2024-03-25T03:28:40;12.20;;;6.35;;
65477;SDS011;53678;39.642;22.430;2024-03-25T03:31:06;11.65;;;6.75;;
65477;SDS011;53678;39.642;22.430;2024-03-25T03:33:32;10.40;;;5.78;;
65477;SDS011;53678;39.642;22.430;2024-03-25T03:35:58;10.20;;;6.03;;
65477;SDS011;53678;39.642;22.430;2024-03-25T03:38:23;8.90;;;4.95;;
65477;SDS011;53678;39.642;22.430;2024-03-25T03:41:01;11.02;;;5.25;;
65477;SDS011;53678;39.642;22.430;2024-03-25T03:43:28;7.88;;;4.82;;
65477;SDS011;53678;39.642;22.430;2024-03-25T03:45:54;7.85;;;4.72;;
65477;SDS011;53678;39.642;22.430;2024-03-25T03:48:20;6.38;;;4.78;;
65477;SDS011;53678;39.642;22.430;2024-03-25T03:50:45;9.55;;;4.88;;
65477;SDS011;53678;39.642;22.430;2024-03-25T03:53:11;11.65;;;4.40;;
65477;SDS011;53678;39.642;22.430;2024-03-25T03:55:37;11.82;;;4.88;;
65477;SDS011;53678;39.642;22.430;2024-03-25T03:58:03;19.50;;;6.13;;
65477;SDS011;53678;39.642;22.430;2024-03-25T04:00:29;10.30;;;5.30;;
65477;SDS011;53678;39.642;22.430;2024-03-25T04:02:58;11.98;;;4.57;;
65477;SDS011;53678;39.642;22.430;2024-03-25T04:05:24;13.25;;;5.18;;
65477;SDS011;53678;39.642;22.430;2024-03-25T04:07:54;10.32;;;5.10;;
65477;SDS011;53678;39.642;22.430;2024-03-25T04:10:19;10.98;;;5.40;;
65477;SDS011;53678;39.642;22.430;2024-03-25T04:12:45;16.60;;;5.85;;
65477;SDS011;53678;39.642;22.430;2024-03-25T04:15:11;9.75;;;5.57;;
65477;SDS011;53678;39.642;22.430;2024-03-25T04:17:45;11.80;;;5.97;;
65477;SDS011;53678;39.642;22.430;2024-03-25T04:20:12;12.82;;;5.50;;
65477;SDS011;53678;39.642;22.430;2024-03-25T04:22:44;10.57;;;5.50;;
65477;SDS011;53678;39.642;22.430;2024-03-25T04:25:10;11.60;;;5.47;;
65477;SDS011;53678;39.642;22.430;2024-03-25T04:27:40;11.60;;;6.03;;
65477;SDS011;53678;39.642;22.430;2024-03-25T04:30:09;10.80;;;5.88;;
65477;SDS011;53678;39.642;22.430;2024-03-25T04:32:36;7.90;;;5.20;;
65477;SDS011;53678;39.642;22.430;2024-03-25T04:35:03;7.15;;;4.80;;
65477;SDS011;53678;39.642;22.430;2024-03-25T04:37:29;13.00;;;6.97;;
65477;SDS011;53678;39.642;22.430;2024-03-25T04:39:55;14.98;;;6.95;;
65477;SDS011;53678;39.642;22.430;2024-03-25T04:42:22;15.02;;;7.75;;
65477;SDS011;53678;39.642;22.430;2024-03-25T04:44:50;14.60;;;7.32;;
65477;SDS011;53678;39.642;22.430;2024-03-25T04:47:16;15.25;;;6.95;;
65477;SDS011;53678;39.642;22.430;2024-03-25T04:49:43;14.25;;;6.47;;
65477;SDS011;53678;39.642;22.430;2024-03-25T04:52:09;10.98;;;6.70;;
65477;SDS011;53678;39.642;22.430;2024-03-25T04:54:38;11.65;;;5.95;;
65477;SDS011;53678;39.642;22.430;2024-03-25T04:57:04;12.57;;;5.57;;
65477;SDS011;53678;39.642;22.430;2024-03-25T04:59:32;13.45;;;5.47;;
65477;SDS011;53678;39.642;22.430;2024-03-25T05:01:59;12.40;;;5.88;;
65477;SDS011;53678;39.642;22.430;2024-03-25T05:04:27;10.48;;;5.80;;
65477;SDS011;53678;39.642;22.430;2024-03-25T05:06:54;16.85;;;6.35;;
65477;SDS011;53678;39.642;22.430;2024-03-25T05:09:20;14.60;;;6.60;;
65477;SDS011;53678;39.642;22.430;2024-03-25T05:11:46;11.02;;;5.35;;
65477;SDS011;53678;39.642;22.430;2024-03-25T05:14:12;11.95;;;5.05;;
65477;SDS011;53678;39.642;22.430;2024-03-25T05:16:38;10.85;;;5.57;;
65477;SDS011;53678;39.642;22.430;2024-03-25T05:19:03;14.88;;;7.20;;
65477;SDS011;53678;39.642;22.430;2024-03-25T05:21:32;18.10;;;6.10;;
65477;SDS011;53678;39.642;22.430;2024-03-25T05:23:58;21.13;;;7.25;;
65477;SDS011;53678;39.642;22.430;2024-03-25T05:26:24;12.20;;;5.85;;
65477;SDS011;53678;39.642;22.430;2024-03-25T05:28:53;10.77;;;5.63;;
65477;SDS011;53678;39.642;22.430;2024-03-25T05:31:19;14.73;;;6.10;;
65477;SDS011;53678;39.642;22.430;2024-03-25T05:33:45;20.50;;;7.18;;
65477;SDS011;53678;39.642;22.430;2024-03-25T05:36:12;12.65;;;6.35;;
65477;SDS011;53678;39.642;22.430;2024-03-25T05:38:38;11.60;;;6.05;;
65477;SDS011;53678;39.642;22.430;2024-03-25T05:41:04;14.85;;;6.80;;
65477;SDS011;53678;39.642;22.430;2024-03-25T05:43:30;11.82;;;7.60;;
65477;SDS011;53678;39.642;22.430;2024-03-25T05:45:57;12.75;;;7.88;;
65477;SDS011;53678;39.642;22.430;2024-03-25T05:48:25;16.58;;;7.65;;
65477;SDS011;53678;39.642;22.430;2024-03-25T05:51:01;11.02;;;8.05;;
65477;SDS011;53678;39.642;22.430;2024-03-25T05:53:28;14.48;;;8.32;;
65477;SDS011;53678;39.642;22.430;2024-03-25T05:55:54;14.63;;;7.18;;
65477;SDS011;53678;39.642;22.430;2024-03-25T05:58:20;10.60;;;7.07;;
65477;SDS011;53678;39.642;22.430;2024-03-25T06:00:46;13.38;;;7.25;;
65477;SDS011;53678;39.642;22.430;2024-03-25T06:03:14;17.48;;;8.38;;
65477;SDS011;53678;39.642;22.430;2024-03-25T06:05:41;12.75;;;8.10;;
65477;SDS011;53678;39.642;22.430;2024-03-25T06:08:07;16.65;;;8.93;;
65477;SDS011;53678;39.642;22.430;2024-03-25T06:10:36;15.35;;;8.55;;
65477;SDS011;53678;39.642;22.430;2024-03-25T06:13:02;15.23;;;8.75;;
65477;SDS011;53678;39.642;22.430;2024-03-25T06:15:28;14.82;;;8.90;;
65477;SDS011;53678;39.642;22.430;2024-03-25T06:17:54;14.07;;;9.07;;
65477;SDS011;53678;39.642;22.430;2024-03-25T06:20:20;12.07;;;8.80;;
65477;SDS011;53678;39.642;22.430;2024-03-25T06:22:46;13.25;;;8.75;;
65477;SDS011;53678;39.642;22.430;2024-03-25T06:25:11;16.70;;;9.32;;
65477;SDS011;53678;39.642;22.430;2024-03-25T06:27:37;15.43;;;8.15;;
65477;SDS011;53678;39.642;22.430;2024-03-25T06:30:03;13.57;;;8.60;;
65477;SDS011;53678;39.642;22.430;2024-03-25T06:32:48;19.23;;;10.00;;
65477;SDS011;53678;39.642;22.430;2024-03-25T06:35:34;17.02;;;10.18;;
65477;SDS011;53678;39.642;22.430;2024-03-25T06:38:02;13.55;;;9.43;;
65477;SDS011;53678;39.642;22.430;2024-03-25T06:40:29;18.10;;;9.70;;
65477;SDS011;53678;39.642;22.430;2024-03-25T06:42:54;12.45;;;8.27;;
65477;SDS011;53678;39.642;22.430;2024-03-25T06:45:20;11.25;;;7.53;;
65477;SDS011;53678;39.642;22.430;2024-03-25T06:47:46;18.25;;;8.38;;
65477;SDS011;53678;39.642;22.430;2024-03-25T06:50:13;14.40;;;7.15;;
65477;SDS011;53678;39.642;22.430;2024-03-25T06:52:39;14.27;;;8.35;;
65477;SDS011;53678;39.642;22.430;2024-03-25T06:55:06;10.75;;;6.65;;
65477;SDS011;53678;39.642;22.430;2024-03-25T06:57:32;11.75;;;7.00;;
65477;SDS011;53678;39.642;22.430;2024-03-25T06:59:58;11.77;;;7.35;;
65477;SDS011;53678;39.642;22.430;2024-03-25T07:02:24;9.63;;;6.57;;
65477;SDS011;53678;39.642;22.430;2024-03-25T07:04:49;14.60;;;6.15;;
65477;SDS011;53678;39.642;22.430;2024-03-25T07:07:15;9.95;;;5.63;;
65477;SDS011;53678;39.642;22.430;2024-03-25T07:09:41;15.68;;;6.38;;
65477;SDS011;53678;39.642;22.430;2024-03-25T07:12:07;17.13;;;6.10;;
65477;SDS011;53678;39.642;22.430;2024-03-25T07:14:33;9.77;;;6.22;;
65477;SDS011;53678;39.642;22.430;2024-03-25T07:16:58;7.72;;;5.28;;
65477;SDS011;53678;39.642;22.430;2024-03-25T07:19:24;10.88;;;5.35;;
65477;SDS011;53678;39.642;22.430;2024-03-25T07:21:51;10.27;;;4.20;;
65477;SDS011;53678;39.642;22.430;2024-03-25T07:24:17;8.77;;;4.55;;
65477;SDS011;53678;39.642;22.430;2024-03-25T07:26:43;11.93;;;5.35;;
65477;SDS011;53678;39.642;22.430;2024-03-25T07:29:08;12.73;;;4.80;;
65477;SDS011;53678;39.642;22.430;2024-03-25T07:31:34;9.18;;;4.22;;
65477;SDS011;53678;39.642;22.430;2024-03-25T07:34:00;9.55;;;4.30;;
65477;SDS011;53678;39.642;22.430;2024-03-25T07:36:25;13.10;;;4.50;;
65477;SDS011;53678;39.642;22.430;2024-03-25T07:38:51;7.75;;;3.05;;
65477;SDS011;53678;39.642;22.430;2024-03-25T07:41:17;8.95;;;3.33;;
65477;SDS011;53678;39.642;22.430;2024-03-25T07:43:43;7.10;;;3.22;;
65477;SDS011;53678;39.642;22.430;2024-03-25T07:46:09;8.85;;;2.78;;
65477;SDS011;53678;39.642;22.430;2024-03-25T07:48:35;5.78;;;2.85;;
65477;SDS011;53678;39.642;22.430;2024-03-25T07:51:01;7.68;;;2.65;;
65477;SDS011;53678;39.642;22.430;2024-03-25T07:53:27;8.20;;;3.03;;
65477;SDS011;53678;39.642;22.430;2024-03-25T07:55:53;4.90;;;1.70;;
65477;SDS011;53678;39.642;22.430;2024-03-25T07:58:19;5.70;;;1.77;;
65477;SDS011;53678;39.642;22.430;2024-03-25T08:00:45;3.67;;;1.20;;
65477;SDS011;53678;39.642;22.430;2024-03-25T08:03:11;3.97;;;1.20;;
65477;SDS011;53678;39.642;22.430;2024-03-25T08:05:36;4.30;;;1.40;;
65477;SDS011;53678;39.642;22.430;2024-03-25T08:08:02;6.25;;;2.30;;
65477;SDS011;53678;39.642;22.430;2024-03-25T08:10:29;10.63;;;2.13;;
65477;SDS011;53678;39.642;22.430;2024-03-25T08:12:54;5.28;;;2.25;;
65477;SDS011;53678;39.642;22.430;2024-03-25T08:15:20;7.43;;;2.65;;
65477;SDS011;53678;39.642;22.430;2024-03-25T08:17:46;8.45;;;2.92;;
65477;SDS011;53678;39.642;22.430;2024-03-25T08:20:11;6.80;;;3.05;;
65477;SDS011;53678;39.642;22.430;2024-03-25T08:22:39;8.95;;;3.80;;
65477;SDS011;53678;39.642;22.430;2024-03-25T08:25:04;4.22;;;2.13;;
65477;SDS011;53678;39.642;22.430;2024-03-25T08:27:31;5.32;;;1.55;;
65477;SDS011;53678;39.642;22.430;2024-03-25T08:29:56;4.78;;;1.10;;
65477;SDS011;53678;39.642;22.430;2024-03-25T08:32:22;8.20;;;1.60;;
65477;SDS011;53678;39.642;22.430;2024-03-25T08:34:48;3.03;;;1.02;;
65477;SDS011;53678;39.642;22.430;2024-03-25T08:37:14;5.40;;;1.45;;
65477;SDS011;53678;39.642;22.430;2024-03-25T08:39:40;4.88;;;1.13;;
65477;SDS011;53678;39.642;22.430;2024-03-25T08:42:06;6.95;;;1.73;;
65477;SDS011;53678;39.642;22.430;2024-03-25T08:44:31;2.50;;;1.45;;
65477;SDS011;53678;39.642;22.430;2024-03-25T08:46:57;4.22;;;1.40;;
65477;SDS011;53678;39.642;22.430;2024-03-25T08:49:23;7.25;;;1.50;;
65477;SDS011;53678;39.642;22.430;2024-03-25T08:51:48;9.38;;;1.58;;
65477;SDS011;53678;39.642;22.430;2024-03-25T08:54:14;11.73;;;1.63;;
65477;SDS011;53678;39.642;22.430;2024-03-25T08:56:40;5.88;;;2.15;;
65477;SDS011;53678;39.642;22.430;2024-03-25T08:59:05;3.75;;;1.40;;
65477;SDS011;53678;39.642;22.430;2024-03-25T09:01:32;3.83;;;1.52;;
65477;SDS011;53678;39.642;22.430;2024-03-25T09:03:58;3.13;;;1.38;;
65477;SDS011;53678;39.642;22.430;2024-03-25T09:06:25;5.05;;;1.27;;
65477;SDS011;53678;39.642;22.430;2024-03-25T09:08:52;3.70;;;1.30;;
65477;SDS011;53678;39.642;22.430;2024-03-25T09:11:36;4.57;;;1.52;;
65477;SDS011;53678;39.642;22.430;2024-03-25T09:14:03;7.40;;;2.45;;
65477;SDS011;53678;39.642;22.430;2024-03-25T09:16:31;4.60;;;1.50;;
65477;SDS011;53678;39.642;22.430;2024-03-25T09:18:57;8.18;;;1.92;;
65477;SDS011;53678;39.642;22.430;2024-03-25T09:21:23;5.22;;;1.50;;
65477;SDS011;53678;39.642;22.430;2024-03-25T09:23:49;5.50;;;1.15;;
65477;SDS011;53678;39.642;22.430;2024-03-25T09:26:15;4.20;;;1.52;;
65477;SDS011;53678;39.642;22.430;2024-03-25T09:28:41;2.88;;;1.40;;
65477;SDS011;53678;39.642;22.430;2024-03-25T09:31:07;4.00;;;1.65;;
65477;SDS011;53678;39.642;22.430;2024-03-25T09:33:32;7.07;;;1.75;;
65477;SDS011;53678;39.642;22.430;2024-03-25T09:35:59;7.18;;;1.85;;
65477;SDS011;53678;39.642;22.430;2024-03-25T09:38:25;4.25;;;1.17;;
65477;SDS011;53678;39.642;22.430;2024-03-25T09:40:52;8.63;;;2.00;;
65477;SDS011;53678;39.642;22.430;2024-03-25T09:43:23;3.22;;;1.50;;
65477;SDS011;53678;39.642;22.430;2024-03-25T09:45:52;7.90;;;1.52;;
65477;SDS011;53678;39.642;22.430;2024-03-25T09:48:21;8.40;;;1.67;;
65477;SDS011;53678;39.642;22.430;2024-03-25T09:50:47;7.47;;;2.00;;
65477;SDS011;53678;39.642;22.430;2024-03-25T09:53:14;7.05;;;1.48;;
65477;SDS011;53678;39.642;22.430;2024-03-25T09:55:40;3.35;;;1.15;;
65477;SDS011;53678;39.642;22.430;2024-03-25T09:58:06;4.88;;;1.20;;
65477;SDS011;53678;39.642;22.430;2024-03-25T10:00:33;4.20;;;1.20;;
65477;SDS011;53678;39.642;22.430;2024-03-25T10:02:59;2.72;;;1.13;;
65477;SDS011;53678;39.642;22.430;2024-03-25T10:05:25;6.45;;;1.30;;
65477;SDS011;53678;39.642;22.430;2024-03-25T10:07:50;4.40;;;1.38;;
65477;SDS011;53678;39.642;22.430;2024-03-25T10:10:19;3.33;;;1.17;;
65477;SDS011;53678;39.642;22.430;2024-03-25T10:12:45;6.35;;;1.88;;
65477;SDS011;53678;39.642;22.430;2024-03-25T10:15:15;6.80;;;1.70;;
65477;SDS011;53678;39.642;22.430;2024-03-25T10:17:43;5.30;;;1.63;;
65477;SDS011;53678;39.642;22.430;2024-03-25T10:20:15;3.60;;;1.40;;
65477;SDS011;53678;39.642;22.430;2024-03-25T10:22:44;5.75;;;1.30;;
65477;SDS011;53678;39.642;22.430;2024-03-25T10:25:21;4.32;;;1.60;;
65477;SDS011;53678;39.642;22.430;2024-03-25T10:27:57;3.92;;;1.30;;
65477;SDS011;53678;39.642;22.430;2024-03-25T10:30:27;4.57;;;1.15;;
65477;SDS011;53678;39.642;22.430;2024-03-25T10:35:26;6.63;;;1.47;;
65477;SDS011;53678;39.642;22.430;2024-03-25T10:37:56;2.75;;;1.15;;
65477;SDS011;53678;39.642;22.430;2024-03-25T10:40:26;6.85;;;1.58;;
65477;SDS011;53678;39.642;22.430;2024-03-25T10:42:55;4.93;;;1.30;;
65477;SDS011;53678;39.642;22.430;2024-03-25T10:45:28;4.85;;;1.70;;
65477;SDS011;53678;39.642;22.430;2024-03-25T10:47:57;4.65;;;2.10;;
65477;SDS011;53678;39.642;22.430;2024-03-25T10:50:28;6.90;;;1.58;;
65477;SDS011;53678;39.642;22.430;2024-03-25T10:52:56;6.82;;;1.60;;
65477;SDS011;53678;39.642;22.430;2024-03-25T10:55:23;5.93;;;1.40;;
65477;SDS011;53678;39.642;22.430;2024-03-25T10:57:53;3.50;;;1.45;;
65477;SDS011;53678;39.642;22.430;2024-03-25T11:00:21;2.35;;;1.00;;
65477;SDS011;53678;39.642;22.430;2024-03-25T11:02:47;7.43;;;1.25;;
65477;SDS011;53678;39.642;22.430;2024-03-25T11:05:15;3.95;;;1.50;;
65477;SDS011;53678;39.642;22.430;2024-03-25T11:07:42;5.57;;;1.60;;
65477;SDS011;53678;39.642;22.430;2024-03-25T11:10:09;4.22;;;1.52;;
65477;SDS011;53678;39.642;22.430;2024-03-25T11:12:35;7.47;;;1.52;;
65477;SDS011;53678;39.642;22.430;2024-03-25T11:15:02;2.10;;;1.20;;
65477;SDS011;53678;39.642;22.430;2024-03-25T11:17:30;6.28;;;1.70;;
65477;SDS011;53678;39.642;22.430;2024-03-25T11:22:36;2.58;;;1.30;;
65477;SDS011;53678;39.642;22.430;2024-03-25T11:25:12;5.70;;;1.13;;
65477;SDS011;53678;39.642;22.430;2024-03-25T11:27:39;7.05;;;1.63;;
65477;SDS011;53678;39.642;22.430;2024-03-25T11:30:08;4.18;;;1.67;;
65477;SDS011;53678;39.642;22.430;2024-03-25T11:33:08;2.97;;;1.75;;
65477;SDS011;53678;39.642;22.430;2024-03-25T11:35:36;2.92;;;1.17;;
65477;SDS011;53678;39.642;22.430;2024-03-25T11:38:03;4.13;;;1.30;;
65477;SDS011;53678;39.642;22.430;2024-03-25T11:40:29;3.45;;;1.38;;
65477;SDS011;53678;39.642;22.430;2024-03-25T11:42:55;6.50;;;1.67;;
65477;SDS011;53678;39.642;22.430;2024-03-25T11:45:22;3.90;;;1.50;;
65477;SDS011;53678;39.642;22.430;2024-03-25T11:47:50;6.78;;;1.38;;
65477;SDS011;53678;39.642;22.430;2024-03-25T11:50:16;6.18;;;1.38;;
65477;SDS011;53678;39.642;22.430;2024-03-25T11:52:43;4.32;;;1.00;;
65477;SDS011;53678;39.642;22.430;2024-03-25T11:55:10;2.35;;;1.30;;
65477;SDS011;53678;39.642;22.430;2024-03-25T11:57:40;3.25;;;1.58;;
65477;SDS011;53678;39.642;22.430;2024-03-25T12:00:07;2.15;;;1.27;;
65477;SDS011;53678;39.642;22.430;2024-03-25T12:02:47;5.07;;;1.42;;
65477;SDS011;53678;39.642;22.430;2024-03-25T12:05:15;4.47;;;1.73;;
65477;SDS011;53678;39.642;22.430;2024-03-25T12:07:41;4.43;;;1.35;;
65477;SDS011;53678;39.642;22.430;2024-03-25T12:10:07;6.60;;;1.48;;
65477;SDS011;53678;39.642;22.430;2024-03-25T12:12:52;5.43;;;1.38;;
65477;SDS011;53678;39.642;22.430;2024-03-25T12:15:22;4.10;;;1.58;;
65477;SDS011;53678;39.642;22.430;2024-03-25T12:17:48;6.70;;;1.70;;
65477;SDS011;53678;39.642;22.430;2024-03-25T12:20:16;5.00;;;1.38;;
65477;SDS011;53678;39.642;22.430;2024-03-25T12:22:42;3.33;;;1.17;;
65477;SDS011;53678;39.642;22.430;2024-03-25T12:25:09;3.85;;;1.10;;
65477;SDS011;53678;39.642;22.430;2024-03-25T12:27:36;2.17;;;1.20;;
65477;SDS011;53678;39.642;22.430;2024-03-25T12:30:06;3.53;;;1.38;;
65477;SDS011;53678;39.642;22.430;2024-03-25T12:35:02;2.78;;;1.40;;
65477;SDS011;53678;39.642;22.430;2024-03-25T12:37:30;3.33;;;1.40;;
65477;SDS011;53678;39.642;22.430;2024-03-25T12:39:57;3.17;;;1.30;;
65477;SDS011;53678;39.642;22.430;2024-03-25T12:42:25;3.65;;;1.40;;
65477;SDS011;53678;39.642;22.430;2024-03-25T12:44:53;5.60;;;1.40;;
65477;SDS011;53678;39.642;22.430;2024-03-25T12:47:19;5.95;;;1.75;;
65477;SDS011;53678;39.642;22.430;2024-03-25T12:49:45;4.40;;;1.63;;
65477;SDS011;53678;39.642;22.430;2024-03-25T12:52:12;2.63;;;1.33;;
65477;SDS011;53678;39.642;22.430;2024-03-25T12:54:37;3.35;;;1.33;;
65477;SDS011;53678;39.642;22.430;2024-03-25T12:57:03;7.82;;;1.42;;
65477;SDS011;53678;39.642;22.430;2024-03-25T12:59:29;3.30;;;1.35;;
65477;SDS011;53678;39.642;22.430;2024-03-25T13:01:55;3.85;;;1.58;;
65477;SDS011;53678;39.642;22.430;2024-03-25T13:04:21;5.20;;;1.52;;
65477;SDS011;53678;39.642;22.430;2024-03-25T13:06:46;3.95;;;1.50;;
65477;SDS011;53678;39.642;22.430;2024-03-25T13:09:12;2.42;;;1.20;;
65477;SDS011;53678;39.642;22.430;2024-03-25T13:11:38;3.08;;;1.75;;
65477;SDS011;53678;39.642;22.430;2024-03-25T13:14:04;4.45;;;1.33;;
65477;SDS011;53678;39.642;22.430;2024-03-25T13:16:32;2.38;;;1.23;;
65477;SDS011;53678;39.642;22.430;2024-03-25T13:18:58;7.40;;;1.60;;
65477;SDS011;53678;39.642;22.430;2024-03-25T13:21:25;6.40;;;1.27;;
65477;SDS011;53678;39.642;22.430;2024-03-25T13:23:54;2.80;;;1.58;;
65477;SDS011;53678;39.642;22.430;2024-03-25T13:26:19;4.95;;;1.63;;
65477;SDS011;53678;39.642;22.430;2024-03-25T13:28:45;7.20;;;1.42;;
65477;SDS011;53678;39.642;22.430;2024-03-25T13:31:11;2.83;;;1.40;;
65477;SDS011;53678;39.642;22.430;2024-03-25T13:33:37;4.72;;;1.30;;
65477;SDS011;53678;39.642;22.430;2024-03-25T13:36:06;3.45;;;1.48;;
65477;SDS011;53678;39.642;22.430;2024-03-25T13:38:33;3.00;;;1.20;;
65477;SDS011;53678;39.642;22.430;2024-03-25T13:41:02;2.85;;;1.27;;
65477;SDS011;53678;39.642;22.430;2024-03-25T13:43:28;4.72;;;1.50;;
65477;SDS011;53678;39.642;22.430;2024-03-25T13:45:54;5.82;;;1.35;;
65477;SDS011;53678;39.642;22.430;2024-03-25T13:48:20;3.03;;;1.42;;
65477;SDS011;53678;39.642;22.430;2024-03-25T13:50:45;4.65;;;1.55;;
65477;SDS011;53678;39.642;22.430;2024-03-25T13:53:13;5.28;;;1.50;;
65477;SDS011;53678;39.642;22.430;2024-03-25T13:55:39;3.17;;;1.70;;
65477;SDS011;53678;39.642;22.430;2024-03-25T13:58:05;4.25;;;1.50;;
65477;SDS011;53678;39.642;22.430;2024-03-25T14:00:33;3.75;;;1.38;;
65477;SDS011;53678;39.642;22.430;2024-03-25T14:03:01;1.90;;;1.10;;
65477;SDS011;53678;39.642;22.430;2024-03-25T14:05:27;4.55;;;1.38;;
65477;SDS011;53678;39.642;22.430;2024-03-25T14:07:53;6.75;;;1.80;;
65477;SDS011;53678;39.642;22.430;2024-03-25T14:10:18;3.78;;;1.63;;
65477;SDS011;53678;39.642;22.430;2024-03-25T14:12:44;3.67;;;1.75;;
65477;SDS011;53678;39.642;22.430;2024-03-25T14:15:11;4.20;;;1.40;;
65477;SDS011;53678;39.642;22.430;2024-03-25T14:17:37;2.55;;;1.40;;
65477;SDS011;53678;39.642;22.430;2024-03-25T14:20:02;3.45;;;1.40;;
65477;SDS011;53678;39.642;22.430;2024-03-25T14:22:31;2.95;;;1.30;;
65477;SDS011;53678;39.642;22.430;2024-03-25T14:24:59;3.22;;;1.25;;
65477;SDS011;53678;39.642;22.430;2024-03-25T14:27:24;2.50;;;1.20;;
65477;SDS011;53678;39.642;22.430;2024-03-25T14:29:50;5.28;;;1.48;;
65477;SDS011;53678;39.642;22.430;2024-03-25T14:32:19;8.13;;;1.55;;
65477;SDS011;53678;39.642;22.430;2024-03-25T14:34:46;4.38;;;1.40;;